Terminal Aerodrome Forecast
Issued by NWS Tampa Bay Area, FL

Current Version | Previous Version | Text Only | Print | Product List | Glossary On
Versions: 1 2 3 4 5 6 7 8 9 10 11 12 13 14 15 16
000
FTUS42 KTBW 221140
TAFFMY
TAF
KFMY 221140Z 2212/2312 VRB03KT P6SM FEW005 SCT150
     FM221400 VRB03KT P6SM SCT015 SCT150
     FM221600 06004KT P6SM SCT035 SCT150
     FM221900 33006KT P6SM SCT040 SCT150
     FM230100 07004KT P6SM SCT040 BKN150
     FM230800 10004KT 6SM BR SCT015=

USA.gov is the U.S. government's official web portal to all federal, state and local government web resources and services.